Time;durP1;ratioP1;P1;durP2;ratioP2;P2;SDS_P1;SDS_P2;PMS_P1;PMS_P2;Temp;Humidity;BMP_temperature;BMP_pressure;BME280_temperature;BME280_humidity;BME280_pressure;Samples;Min_cycle;Max_cycle;Signal;HPM_P1;HPM_P2
2021/12/14 00:02:04;;;;;;;;;;;8.00;99.90;;;;;;5057659;28;20033;-80
2021/12/14 00:04:33;;;;;;;;;;;8.60;99.90;;;;;;5056628;28;20011;-80
2021/12/14 00:07:00;;;;;;;;;;;8.20;99.90;;;;;;5058056;28;19928;-79
2021/12/14 00:09:31;;;;;;;;;;;8.30;99.90;;;;;;5037796;28;19932;-80
2021/12/14 00:17:25;;;;;;;;;;;8.00;99.90;;;;;;5055669;28;19979;-80
2021/12/14 00:19:52;;;;;;;;;;;8.00;99.90;;;;;;5056043;28;19920;-79
2021/12/14 00:22:36;;;;;;;;;;;8.00;99.90;;;;;;5054389;28;19975;-80
2021/12/14 00:25:03;;;;;;;;;;;8.00;99.90;;;;;;5056110;28;20299;-79
2021/12/14 00:27:29;;;;;;;;;;;8.00;99.90;;;;;;5059914;28;20287;-80
2021/12/14 00:29:57;;;;;;;;;;;8.00;99.90;;;;;;5055675;28;20364;-79
2021/12/14 00:32:24;;;;;;;;;;;8.20;99.90;;;;;;5038709;28;19916;-80
2021/12/14 00:34:51;;;;;;;;;;;8.00;99.90;;;;;;5037746;28;20367;-79
2021/12/14 00:37:19;;;;;;;;;;;8.20;99.90;;;;;;5054579;28;19920;-80
2021/12/14 00:39:45;;;;;;;;;;;7.90;99.90;;;;;;5056034;28;19920;-80
2021/12/14 00:42:11;;;;;;;;;;;8.20;99.90;;;;;;5057478;28;19921;-80
2021/12/14 00:44:36;;;;;;;;;;;7.90;99.90;;;;;;5056866;28;19974;-80
2021/12/14 00:47:03;;;;;;;;;;;7.90;99.90;;;;;;5056035;28;19925;-80
2021/12/14 00:49:28;;;;;;;;;;;7.90;99.90;;;;;;5057336;28;19928;-80
2021/12/14 00:51:54;;;;;;;;;;;7.90;99.90;;;;;;5055467;28;19921;-80
2021/12/14 00:54:21;;;;;;;;;;;8.60;99.90;;;;;;5055463;28;19956;-80
2021/12/14 00:56:47;;;;;;;;;;;7.90;99.90;;;;;;5055448;28;20010;-79
2021/12/14 00:59:13;;;;;;;;;;;7.90;99.90;;;;;;5038432;28;19967;-80
2021/12/14 01:01:41;;;;;;;;;;;7.80;99.90;;;;;;5054194;28;19916;-80
2021/12/14 01:04:09;;;;;;;;;;;7.90;99.90;;;;;;5054653;28;19921;-80
2021/12/14 01:06:37;;;;;;;;;;;7.90;99.90;;;;;;5055126;28;19921;-80
2021/12/14 01:09:04;;;;;;;;;;;7.90;99.90;;;;;;5054298;28;19923;-79
2021/12/14 01:11:35;;;;;;;;;;;8.30;99.90;;;;;;5055424;28;19928;-80
2021/12/14 01:14:05;;;;;;;;;;;7.90;99.90;;;;;;5055153;28;20371;-79
2021/12/14 01:16:50;;;;;;;;;;;7.90;99.90;;;;;;5055049;28;19921;-79
2021/12/14 01:19:20;;;;;;;;;;;7.90;99.90;;;;;;5054854;28;19924;-80
2021/12/14 01:27:04;;;;;;;;;;;7.90;99.90;;;;;;5054936;28;19925;-79
2021/12/14 01:29:31;;;;;;;;;;;7.90;99.90;;;;;;5054676;28;19920;-79
2021/12/14 01:32:00;;;;;;;;;;;7.90;99.90;;;;;;5054630;28;19954;-79
2021/12/14 01:34:26;;;;;;;;;;;8.00;99.90;;;;;;5054547;28;20398;-80
2021/12/14 01:36:56;;;;;;;;;;;7.90;99.90;;;;;;5053501;28;19928;-80
2021/12/14 01:42:10;;;;;;;;;;;8.00;99.90;;;;;;5054900;28;19927;-79
2021/12/14 01:44:42;;;;;;;;;;;8.00;99.90;;;;;;5053736;28;19982;-80
2021/12/14 01:47:11;;;;;;;;;;;8.00;99.90;;;;;;5053691;28;20399;-79
2021/12/14 01:49:37;;;;;;;;;;;8.00;99.90;;;;;;5054721;28;20302;-79
2021/12/14 01:52:08;;;;;;;;;;;8.60;99.90;;;;;;5053871;28;19921;-79
2021/12/14 01:54:38;;;;;;;;;;;8.00;99.90;;;;;;5037363;28;19921;-80
2021/12/14 01:57:07;;;;;;;;;;;8.00;99.90;;;;;;5053604;28;20410;-80
2021/12/14 01:59:36;;;;;;;;;;;8.00;99.90;;;;;;5054573;28;19921;-80
2021/12/14 02:02:19;;;;;;;;;;;8.40;99.90;;;;;;5054839;28;20405;-80
2021/12/14 02:04:45;;;;;;;;;;;8.00;99.90;;;;;;5053586;28;19967;-80
2021/12/14 02:07:12;;;;;;;;;;;8.00;99.90;;;;;;5054820;28;19917;-80
2021/12/14 02:09:38;;;;;;;;;;;8.00;99.90;;;;;;5055123;28;19920;-80
2021/12/14 02:12:12;;;;;;;;;;;8.40;99.90;;;;;;5055190;28;19916;-80
2021/12/14 02:14:38;;;;;;;;;;;8.00;99.90;;;;;;5037300;28;20011;-80
2021/12/14 02:17:04;;;;;;;;;;;8.20;99.90;;;;;;5053792;28;19986;-79
2021/12/14 02:19:30;;;;;;;;;;;8.00;99.90;;;;;;5053983;28;19944;-80
2021/12/14 02:21:56;;;;;;;;;;;8.10;99.90;;;;;;5037336;28;20454;-80
2021/12/14 02:24:23;;;;;;;;;;;8.10;99.90;;;;;;5054427;28;19967;-80
2021/12/14 02:26:49;;;;;;;;;;;8.10;99.90;;;;;;5054552;28;20326;-80
2021/12/14 02:29:26;;;;;;;;;;;8.10;99.90;;;;;;5058184;28;19927;-80
2021/12/14 02:31:53;;;;;;;;;;;8.00;99.90;;;;;;5057044;28;19927;-80
2021/12/14 02:34:19;;;;;;;;;;;8.10;99.90;;;;;;5060132;28;19986;-80
2021/12/14 02:36:46;;;;;;;;;;;8.10;99.90;;;;;;5060551;28;19925;-79
2021/12/14 02:42:12;;;;;;;;;;;8.30;99.90;;;;;;5018895;28;19927;-80
2021/12/14 02:44:38;;;;;;;;;;;8.80;99.90;;;;;;5035725;28;19917;-79
2021/12/14 02:47:08;;;;;;;;;;;8.00;99.90;;;;;;5035830;28;20444;-79
2021/12/14 02:49:34;;;;;;;;;;;8.10;99.90;;;;;;5035789;28;19924;-79
2021/12/14 02:52:05;;;;;;;;;;;8.00;99.90;;;;;;5035317;28;19929;-79
2021/12/14 02:54:34;;;;;;;;;;;8.00;99.90;;;;;;5019043;28;19921;-79
2021/12/14 02:57:05;;;;;;;;;;;8.20;99.90;;;;;;5036325;28;20362;-80
2021/12/14 02:59:33;;;;;;;;;;;8.00;99.90;;;;;;5035879;28;20399;-80
2021/12/14 03:02:04;;;;;;;;;;;8.00;99.90;;;;;;5018541;28;19925;-79
2021/12/14 03:04:29;;;;;;;;;;;8.00;99.90;;;;;;5018901;28;20391;-79
2021/12/14 03:06:56;;;;;;;;;;;8.00;99.90;;;;;;5035693;28;19920;-79
2021/12/14 03:12:21;;;;;;;;;;;8.00;99.90;;;;;;5035208;28;19967;-79
2021/12/14 03:14:49;;;;;;;;;;;8.00;99.90;;;;;;5034910;28;19960;-79
2021/12/14 03:17:14;;;;;;;;;;;7.90;99.90;;;;;;5034979;28;19921;-79
2021/12/14 03:19:40;;;;;;;;;;;7.90;99.90;;;;;;5054440;28;19921;-79
2021/12/14 03:22:19;;;;;;;;;;;7.90;99.90;;;;;;5055686;28;20321;-79
2021/12/14 03:24:44;;;;;;;;;;;7.90;99.90;;;;;;5057076;28;19921;-80
2021/12/14 03:27:10;;;;;;;;;;;8.40;99.90;;;;;;5057622;28;19939;-80
2021/12/14 03:29:36;;;;;;;;;;;8.40;99.90;;;;;;5057320;28;19967;-80
2021/12/14 03:32:02;;;;;;;;;;;8.30;99.90;;;;;;5055556;28;20299;-80
2021/12/14 03:34:30;;;;;;;;;;;7.90;99.90;;;;;;5055903;28;19916;-79
2021/12/14 03:36:55;;;;;;;;;;;8.20;99.90;;;;;;5055354;28;19928;-79
2021/12/14 03:39:29;;;;;;;;;;;7.90;99.90;;;;;;5055126;28;19970;-80
2021/12/14 03:41:59;;;;;;;;;;;7.90;99.90;;;;;;5056801;28;19927;-79
2021/12/14 03:44:45;;;;;;;;;;;7.90;99.90;;;;;;5056427;28;20276;-79
2021/12/14 03:47:13;;;;;;;;;;;8.20;99.90;;;;;;5056661;28;19967;-80
2021/12/14 03:49:47;;;;;;;;;;;8.20;99.90;;;;;;5056425;28;20298;-79
2021/12/14 03:52:15;;;;;;;;;;;8.10;99.90;;;;;;5056688;28;19964;-80
2021/12/14 03:54:41;;;;;;;;;;;7.80;99.90;;;;;;5057243;28;20383;-80
2021/12/14 03:57:08;;;;;;;;;;;8.20;99.90;;;;;;5056310;28;19972;-80
2021/12/14 03:59:33;;;;;;;;;;;8.30;99.90;;;;;;5055601;28;19920;-79
2021/12/14 04:02:01;;;;;;;;;;;7.80;99.90;;;;;;5056271;28;19928;-80
2021/12/14 04:04:36;;;;;;;;;;;7.90;99.90;;;;;;5054938;28;20329;-79
2021/12/14 04:07:03;;;;;;;;;;;7.80;99.90;;;;;;5055863;28;19928;-80
2021/12/14 04:09:30;;;;;;;;;;;7.80;99.90;;;;;;5054605;28;19924;-79
2021/12/14 04:11:55;;;;;;;;;;;8.20;99.90;;;;;;5055669;28;19966;-79
2021/12/14 04:14:21;;;;;;;;;;;7.80;99.90;;;;;;5055068;28;19924;-80
2021/12/14 04:16:49;;;;;;;;;;;7.80;99.90;;;;;;5054761;28;19921;-80
2021/12/14 04:19:20;;;;;;;;;;;7.80;99.90;;;;;;5055867;28;19927;-80
2021/12/14 04:21:46;;;;;;;;;;;7.80;99.90;;;;;;5055782;28;19931;-80
2021/12/14 04:24:12;;;;;;;;;;;7.80;99.90;;;;;;5055944;28;19924;-80
2021/12/14 04:26:44;;;;;;;;;;;7.80;99.90;;;;;;5055047;28;19928;-80
2021/12/14 04:29:12;;;;;;;;;;;7.70;99.90;;;;;;5038601;28;19927;-79
2021/12/14 04:31:38;;;;;;;;;;;7.90;99.90;;;;;;5037440;28;19928;-80
2021/12/14 04:34:04;;;;;;;;;;;7.70;99.90;;;;;;5038476;28;19968;-79
2021/12/14 04:36:30;;;;;;;;;;;7.70;99.90;;;;;;5054436;28;19968;-80
2021/12/14 04:39:05;;;;;;;;;;;7.70;99.90;;;;;;5054708;28;19924;-80
2021/12/14 04:52:52;;;;;;;;;;;7.70;99.90;;;;;;5016830;28;19971;-79
2021/12/14 04:55:18;;;;;;;;;;;7.70;99.90;;;;;;5033615;28;20462;-80
2021/12/14 04:57:45;;;;;;;;;;;7.70;99.90;;;;;;4999951;28;20011;-80
2021/12/14 05:00:22;;;;;;;;;;;7.80;99.90;;;;;;5016763;28;19921;-80
2021/12/14 05:02:49;;;;;;;;;;;7.70;99.90;;;;;;5033750;28;20391;-79
2021/12/14 05:05:21;;;;;;;;;;;8.20;99.90;;;;;;5016958;28;19975;-79
2021/12/14 05:10:41;;;;;;;;;;;7.80;99.90;;;;;;5033026;28;19921;-79
2021/12/14 05:13:07;;;;;;;;;;;7.80;99.90;;;;;;5000330;28;19972;-80
2021/12/14 05:15:35;;;;;;;;;;;8.00;99.90;;;;;;5016950;28;19928;-79
2021/12/14 05:18:01;;;;;;;;;;;7.90;99.90;;;;;;5032830;28;19989;-79
2021/12/14 05:20:26;;;;;;;;;;;7.90;99.90;;;;;;5032915;28;20403;-80
2021/12/14 05:22:52;;;;;;;;;;;7.80;99.90;;;;;;5015928;28;19984;-80
2021/12/14 05:25:24;;;;;;;;;;;8.30;99.90;;;;;;5016384;28;19925;-80
2021/12/14 05:27:51;;;;;;;;;;;7.80;99.90;;;;;;5016766;28;19921;-79
2021/12/14 05:30:22;;;;;;;;;;;7.90;99.90;;;;;;5055324;28;19971;-79
2021/12/14 05:32:48;;;;;;;;;;;7.90;99.90;;;;;;5053316;28;19921;-80
2021/12/14 05:35:15;;;;;;;;;;;7.90;99.90;;;;;;5053828;28;19973;-80
2021/12/14 05:37:53;;;;;;;;;;;7.90;99.90;;;;;;5055625;28;19921;-79
2021/12/14 05:40:36;;;;;;;;;;;7.80;99.90;;;;;;5053414;28;19927;-79
2021/12/14 05:43:07;;;;;;;;;;;7.80;99.90;;;;;;5054376;28;20371;-79
2021/12/14 05:45:41;;;;;;;;;;;7.80;99.90;;;;;;5053346;28;19919;-80
2021/12/14 05:48:08;;;;;;;;;;;7.80;99.90;;;;;;5054616;28;19924;-79
2021/12/14 05:50:34;;;;;;;;;;;7.80;99.90;;;;;;5053142;28;19979;-79
2021/12/14 05:53:00;;;;;;;;;;;7.80;99.90;;;;;;5054566;28;19952;-79
2021/12/14 05:55:28;;;;;;;;;;;7.90;99.90;;;;;;5054343;28;19920;-80
2021/12/14 05:57:54;;;;;;;;;;;7.90;99.90;;;;;;5036659;28;19928;-80
2021/12/14 06:00:20;;;;;;;;;;;7.90;99.90;;;;;;5054426;28;20007;-79
2021/12/14 06:02:46;;;;;;;;;;;7.80;99.90;;;;;;5055599;28;19968;-80
2021/12/14 06:05:13;;;;;;;;;;;7.80;99.90;;;;;;5040921;28;19921;-80
2021/12/14 06:07:39;;;;;;;;;;;7.80;99.90;;;;;;5058313;28;19920;-79
2021/12/14 06:10:05;;;;;;;;;;;7.80;99.90;;;;;;5057777;28;19979;-79
2021/12/14 06:12:32;;;;;;;;;;;7.80;99.90;;;;;;5057780;28;19920;-79
2021/12/14 06:14:59;;;;;;;;;;;7.80;99.90;;;;;;5056308;28;20019;-79
2021/12/14 06:17:29;;;;;;;;;;;8.40;99.90;;;;;;5057602;28;19921;-79
2021/12/14 06:19:56;;;;;;;;;;;7.80;99.90;;;;;;5057581;28;20011;-79
2021/12/14 06:22:23;;;;;;;;;;;7.90;99.90;;;;;;5040479;28;20041;-80
2021/12/14 06:24:50;;;;;;;;;;;7.80;99.90;;;;;;5057650;28;20466;-79
2021/12/14 06:27:18;;;;;;;;;;;7.80;99.90;;;;;;5056664;28;19974;-79
2021/12/14 06:29:46;;;;;;;;;;;7.80;99.90;;;;;;5057647;28;19920;-79
2021/12/14 06:32:39;;;;;;;;;;;8.30;99.90;;;;;;5058489;28;20322;-80
2021/12/14 06:35:07;;;;;;;;;;;7.80;99.90;;;;;;5057016;28;19943;-79
2021/12/14 06:38:09;;;;;;;;;;;7.80;99.90;;;;;;5065754;22;19920;-80
2021/12/14 06:40:36;;;;;;;;;;;7.80;99.90;;;;;;5077144;28;20335;-80
2021/12/14 06:43:28;;;;;;;;;;;7.80;99.90;;;;;;5077513;28;19960;-79
2021/12/14 06:45:56;;;;;;;;;;;7.90;99.90;;;;;;5073647;28;19920;-79
2021/12/14 06:48:24;;;;;;;;;;;7.80;99.90;;;;;;5077786;28;19931;-80
2021/12/14 06:50:52;;;;;;;;;;;7.80;99.90;;;;;;5077772;28;20413;-80
2021/12/14 06:53:19;;;;;;;;;;;8.30;99.90;;;;;;5077701;28;20374;-80
2021/12/14 06:55:45;;;;;;;;;;;7.80;99.90;;;;;;5060405;28;19966;-80
2021/12/14 06:58:10;;;;;;;;;;;8.00;99.90;;;;;;5059127;28;19927;-80
2021/12/14 07:00:39;;;;;;;;;;;7.80;99.90;;;;;;5059121;28;19920;-80
2021/12/14 07:03:05;;;;;;;;;;;7.80;99.90;;;;;;5058692;28;20291;-79
2021/12/14 07:05:31;;;;;;;;;;;7.80;99.90;;;;;;5058919;28;19928;-80
2021/12/14 07:07:57;;;;;;;;;;;8.40;99.90;;;;;;5059170;28;19956;-80
2021/12/14 07:10:23;;;;;;;;;;;7.80;99.90;;;;;;5076883;28;19927;-79
2021/12/14 07:12:49;;;;;;;;;;;7.40;99.90;;;;;;5059132;28;20231;-79
2021/12/14 07:15:18;;;;;;;;;;;7.80;99.90;;;;;;5058663;28;19963;-80
2021/12/14 07:17:49;;;;;;;;;;;7.80;99.90;;;;;;5077056;28;19959;-79
2021/12/14 07:20:28;;;;;;;;;;;7.90;99.90;;;;;;5043379;28;20346;-80
2021/12/14 07:22:55;;;;;;;;;;;7.80;99.90;;;;;;5079275;28;20371;-80
2021/12/14 07:25:27;;;;;;;;;;;7.90;99.90;;;;;;5059736;23;19925;-80
2021/12/14 07:27:57;;;;;;;;;;;7.90;99.90;;;;;;5024811;28;19982;-80
2021/12/14 07:30:22;;;;;;;;;;;7.90;99.90;;;;;;5023074;28;19923;-79
2021/12/14 07:32:57;;;;;;;;;;;7.90;99.90;;;;;;5038142;28;19924;-80
2021/12/14 07:35:25;;;;;;;;;;;7.90;99.90;;;;;;5056831;28;20003;-80
2021/12/14 07:37:51;;;;;;;;;;;7.90;99.90;;;;;;5038791;28;19928;-79
2021/12/14 07:40:17;;;;;;;;;;;8.20;99.90;;;;;;5056450;28;20330;-80
2021/12/14 07:42:42;;;;;;;;;;;8.20;99.90;;;;;;5038648;28;20256;-80
2021/12/14 07:45:08;;;;;;;;;;;7.90;99.90;;;;;;5057187;28;19931;-80
2021/12/14 07:47:34;;;;;;;;;;;8.10;99.90;;;;;;5038299;28;19920;-79
2021/12/14 07:50:00;;;;;;;;;;;8.20;99.90;;;;;;5040498;28;20018;-79
2021/12/14 07:52:28;;;;;;;;;;;7.90;99.90;;;;;;5060598;28;19921;-80
2021/12/14 07:54:55;;;;;;;;;;;8.00;99.90;;;;;;5059508;28;19921;-79
2021/12/14 07:57:29;;;;;;;;;;;8.10;99.90;;;;;;5024643;28;19924;-79
2021/12/14 08:00:00;;;;;;;;;;;8.00;99.90;;;;;;5040886;28;20017;-80
2021/12/14 08:02:33;;;;;;;;;;;8.00;99.90;;;;;;5038862;28;19920;-80
2021/12/14 08:04:59;;;;;;;;;;;8.00;99.90;;;;;;5056247;28;19925;-80
2021/12/14 08:07:35;;;;;;;;;;;8.00;99.90;;;;;;5038571;28;19921;-79
2021/12/14 08:10:09;;;;;;;;;;;8.00;99.90;;;;;;5056128;28;20356;-79
2021/12/14 08:12:46;;;;;;;;;;;8.00;99.90;;;;;;5056271;28;19928;-79
2021/12/14 08:15:32;;;;;;;;;;;8.10;99.90;;;;;;5038056;28;19927;-80
2021/12/14 08:17:57;;;;;;;;;;;8.00;99.90;;;;;;5055909;28;19946;-79
2021/12/14 08:20:24;;;;;;;;;;;8.20;99.90;;;;;;5038604;28;19924;-80
2021/12/14 08:22:49;;;;;;;;;;;8.50;99.90;;;;;;5056008;28;19927;-79
2021/12/14 08:25:15;;;;;;;;;;;8.00;99.90;;;;;;5037833;28;19920;-80
2021/12/14 08:27:41;;;;;;;;;;;8.00;99.90;;;;;;5055953;28;19964;-79
2021/12/14 08:30:12;;;;;;;;;;;8.00;99.90;;;;;;5038192;28;19921;-79
2021/12/14 08:32:38;;;;;;;;;;;8.00;99.90;;;;;;5037866;28;19925;-79
2021/12/14 08:35:06;;;;;;;;;;;8.40;99.90;;;;;;5037803;28;19999;-80
2021/12/14 08:37:39;;;;;;;;;;;8.00;99.90;;;;;;5055952;28;20355;-79
2021/12/14 08:40:07;;;;;;;;;;;8.00;99.90;;;;;;5055766;28;19927;-80
2021/12/14 08:42:49;;;;;;;;;;;8.00;99.90;;;;;;5056309;28;19928;-79
2021/12/14 08:45:26;;;;;;;;;;;8.00;99.90;;;;;;5038514;28;20423;-80
2021/12/14 08:48:05;;;;;;;;;;;8.60;99.90;;;;;;5055797;28;20008;-80
2021/12/14 08:50:33;;;;;;;;;;;8.00;99.90;;;;;;5055292;28;20387;-80
2021/12/14 08:52:59;;;;;;;;;;;8.10;99.90;;;;;;5055931;28;19952;-79
2021/12/14 08:55:27;;;;;;;;;;;8.10;99.90;;;;;;5041317;28;19928;-80
2021/12/14 08:57:52;;;;;;;;;;;8.30;99.90;;;;;;5055561;28;19948;-79
2021/12/14 09:00:26;;;;;;;;;;;8.30;99.90;;;;;;5055469;28;19925;-80
2021/12/14 09:02:54;;;;;;;;;;;7.90;99.90;;;;;;5055341;28;19917;-79
2021/12/14 09:05:23;;;;;;;;;;;8.10;99.90;;;;;;5054800;28;20319;-80
2021/12/14 09:07:48;;;;;;;;;;;8.10;99.90;;;;;;5036675;28;19917;-79
2021/12/14 09:10:18;;;;;;;;;;;8.10;99.90;;;;;;5037284;28;19921;-80
2021/12/14 09:12:44;;;;;;;;;;;8.10;99.90;;;;;;5036850;28;19928;-79
2021/12/14 09:15:13;;;;;;;;;;;8.60;99.90;;;;;;5054198;28;19943;-79
2021/12/14 09:17:38;;;;;;;;;;;8.10;99.90;;;;;;5020913;28;20308;-79
2021/12/14 09:20:09;;;;;;;;;;;8.20;99.90;;;;;;5037518;28;19929;-80
2021/12/14 09:22:41;;;;;;;;;;;8.10;99.90;;;;;;5037713;28;19921;-79
2021/12/14 09:25:09;;;;;;;;;;;8.30;99.90;;;;;;5022706;28;19970;-79
2021/12/14 09:27:35;;;;;;;;;;;8.10;99.90;;;;;;5038810;28;19920;-80
2021/12/14 09:30:01;;;;;;;;;;;8.20;99.90;;;;;;5054867;28;20374;-79
2021/12/14 09:32:28;;;;;;;;;;;8.10;99.90;;;;;;5036178;28;19920;-79
2021/12/14 09:34:58;;;;;;;;;;;8.50;99.90;;;;;;5053927;28;19964;-79
2021/12/14 09:37:25;;;;;;;;;;;8.10;99.90;;;;;;5056038;28;19975;-79
2021/12/14 09:39:53;;;;;;;;;;;8.10;99.90;;;;;;5058389;28;19921;-79
2021/12/14 09:42:22;;;;;;;;;;;8.10;99.90;;;;;;5058139;28;19925;-79
2021/12/14 09:44:49;;;;;;;;;;;8.10;99.90;;;;;;5040414;28;20420;-79
2021/12/14 09:47:20;;;;;;;;;;;8.00;99.90;;;;;;5058141;28;19921;-80
2021/12/14 09:49:47;;;;;;;;;;;8.10;99.90;;;;;;5040221;28;19928;-79
2021/12/14 09:52:17;;;;;;;;;;;8.10;99.90;;;;;;5058115;28;19928;-79
2021/12/14 09:54:43;;;;;;;;;;;8.10;99.90;;;;;;5058023;28;19920;-79
2021/12/14 09:57:13;;;;;;;;;;;8.10;99.90;;;;;;5057673;28;19925;-79
2021/12/14 09:59:40;;;;;;;;;;;8.10;99.90;;;;;;5057688;28;19921;-79
2021/12/14 10:02:18;;;;;;;;;;;8.10;99.90;;;;;;5040005;28;20007;-79
2021/12/14 10:04:46;;;;;;;;;;;8.60;99.90;;;;;;5057801;28;19921;-79
2021/12/14 10:07:12;;;;;;;;;;;8.30;99.90;;;;;;5057489;28;19967;-79
2021/12/14 10:09:43;;;;;;;;;;;8.20;99.90;;;;;;5022912;28;20330;-79
2021/12/14 10:14:51;;;;;;;;;;;8.20;99.90;;;;;;5057603;28;19920;-79
2021/12/14 10:17:18;;;;;;;;;;;8.60;99.90;;;;;;5057231;28;20410;-79
2021/12/14 10:19:45;;;;;;;;;;;8.50;99.90;;;;;;5039692;28;19920;-79
2021/12/14 10:22:23;;;;;;;;;;;8.30;99.90;;;;;;5057305;28;19917;-79
2021/12/14 10:24:57;;;;;;;;;;;8.30;99.90;;;;;;5057464;28;19921;-79
2021/12/14 10:27:24;;;;;;;;;;;8.30;99.90;;;;;;5056946;28;19972;-79
2021/12/14 10:29:49;;;;;;;;;;;8.30;99.90;;;;;;5056537;28;19921;-79
2021/12/14 10:32:21;;;;;;;;;;;8.30;99.90;;;;;;5039623;28;19943;-79
2021/12/14 10:34:49;;;;;;;;;;;8.30;99.90;;;;;;5057336;28;19921;-79
2021/12/14 10:37:35;;;;;;;;;;;8.30;99.90;;;;;;5039279;28;19920;-79
2021/12/14 10:45:17;;;;;;;;;;;8.40;99.90;;;;;;5038981;28;20272;-79
2021/12/14 10:47:43;;;;;;;;;;;8.40;99.90;;;;;;5056651;28;19916;-79
2021/12/14 10:50:11;;;;;;;;;;;8.50;99.90;;;;;;5056550;28;19965;-79
2021/12/14 10:52:42;;;;;;;;;;;8.40;99.90;;;;;;5039549;28;19920;-79
2021/12/14 10:55:10;;;;;;;;;;;8.40;99.90;;;;;;5057043;28;19931;-79
2021/12/14 10:57:36;;;;;;;;;;;8.50;99.90;;;;;;5038925;28;19924;-79
2021/12/14 11:00:06;;;;;;;;;;;8.40;99.90;;;;;;5056548;28;20367;-79
2021/12/14 11:02:39;;;;;;;;;;;8.50;99.90;;;;;;5038994;28;20019;-79
2021/12/14 11:05:05;;;;;;;;;;;8.40;99.90;;;;;;5040277;28;19921;-79
2021/12/14 11:07:39;;;;;;;;;;;8.40;99.90;;;;;;5056744;28;19924;-79
2021/12/14 11:10:08;;;;;;;;;;;8.50;99.90;;;;;;5056311;28;19925;-79
2021/12/14 11:12:35;;;;;;;;;;;8.50;99.90;;;;;;5056287;28;19920;-79
2021/12/14 11:15:06;;;;;;;;;;;8.50;99.90;;;;;;5056445;28;19983;-79
2021/12/14 11:20:22;;;;;;;;;;;8.50;99.90;;;;;;5056259;28;19920;-79
2021/12/14 11:22:56;;;;;;;;;;;8.50;99.90;;;;;;5056647;28;19928;-79
2021/12/14 11:25:24;;;;;;;;;;;8.50;99.90;;;;;;5056669;28;19921;-79
2021/12/14 11:27:53;;;;;;;;;;;8.60;99.90;;;;;;5038357;28;19983;-79
2021/12/14 11:30:21;;;;;;;;;;;8.50;99.90;;;;;;5055980;28;19916;-79
2021/12/14 11:33:05;;;;;;;;;;;8.60;99.90;;;;;;5056103;28;19929;-79
2021/12/14 11:35:32;;;;;;;;;;;8.60;99.90;;;;;;5056630;28;19920;-79
2021/12/14 11:37:58;;;;;;;;;;;8.60;99.90;;;;;;5056623;28;19964;-80
2021/12/14 11:40:25;;;;;;;;;;;8.60;99.90;;;;;;5022477;28;20276;-79
2021/12/14 11:42:52;;;;;;;;;;;8.70;99.90;;;;;;5056945;28;20375;-80
2021/12/14 11:45:19;;;;;;;;;;;8.80;99.90;;;;;;5039371;28;20462;-80
2021/12/14 11:47:53;;;;;;;;;;;9.10;99.90;;;;;;5057059;28;20268;-80
2021/12/14 11:50:24;;;;;;;;;;;8.70;99.90;;;;;;5056959;28;19925;-80
2021/12/14 11:53:13;;;;;;;;;;;8.80;99.90;;;;;;5021767;28;19928;-79
2021/12/14 11:55:44;;;;;;;;;;;8.70;99.90;;;;;;5055507;28;19928;-80
2021/12/14 11:58:18;;;;;;;;;;;8.80;99.90;;;;;;5056779;28;19921;-80
2021/12/14 12:00:49;;;;;;;;;;;8.80;99.90;;;;;;5055865;28;19986;-79
2021/12/14 12:03:18;;;;;;;;;;;8.80;99.90;;;;;;5058646;28;20298;-80
2021/12/14 12:06:01;;;;;;;;;;;8.80;99.90;;;;;;5038694;28;19921;-79
2021/12/14 12:11:12;;;;;;;;;;;8.80;99.90;;;;;;5056694;28;19927;-80
2021/12/14 12:13:39;;;;;;;;;;;9.30;99.90;;;;;;5056574;28;19925;-79
2021/12/14 12:16:12;;;;;;;;;;;8.80;99.90;;;;;;5056759;28;20378;-80
2021/12/14 12:18:38;;;;;;;;;;;8.80;99.90;;;;;;5055791;28;19921;-80
2021/12/14 12:21:04;;;;;;;;;;;8.80;99.90;;;;;;5021314;28;20295;-79
2021/12/14 12:23:42;;;;;;;;;;;8.70;99.90;;;;;;5039114;28;19931;-80
2021/12/14 12:26:09;;;;;;;;;;;8.80;99.90;;;;;;5055757;28;19989;-80
2021/12/14 12:28:38;;;;;;;;;;;8.80;99.90;;;;;;5054834;28;19969;-80
2021/12/14 12:31:07;;;;;;;;;;;8.80;99.90;;;;;;5056237;28;19921;-80
2021/12/14 12:33:45;;;;;;;;;;;8.80;99.90;;;;;;5038040;28;19924;-79
2021/12/14 12:36:25;;;;;;;;;;;8.80;99.90;;;;;;5056066;28;19966;-80
2021/12/14 12:38:54;;;;;;;;;;;8.80;99.90;;;;;;5038164;28;19920;-79
2021/12/14 12:41:26;;;;;;;;;;;8.80;99.90;;;;;;5056155;28;19921;-80
2021/12/14 12:43:54;;;;;;;;;;;8.80;99.90;;;;;;5055706;28;20011;-79
2021/12/14 12:46:22;;;;;;;;;;;8.90;99.90;;;;;;5055803;28;20398;-80
2021/12/14 12:48:53;;;;;;;;;;;8.90;99.90;;;;;;5056204;28;19921;-80
2021/12/14 12:51:37;;;;;;;;;;;8.90;99.90;;;;;;5055869;28;19921;-79
2021/12/14 12:54:09;;;;;;;;;;;9.00;99.90;;;;;;5055616;28;19927;-80
2021/12/14 12:56:37;;;;;;;;;;;9.00;99.90;;;;;;5037699;28;19920;-79
2021/12/14 12:59:03;;;;;;;;;;;9.10;99.90;;;;;;5055763;28;19925;-80
2021/12/14 13:01:28;;;;;;;;;;;9.00;99.90;;;;;;5037701;28;19924;-80
2021/12/14 13:03:55;;;;;;;;;;;9.40;99.90;;;;;;5056123;28;19947;-80
2021/12/14 13:06:22;;;;;;;;;;;9.00;99.90;;;;;;5055601;28;19968;-80
2021/12/14 13:08:51;;;;;;;;;;;9.00;99.90;;;;;;5055607;28;19960;-80
2021/12/14 13:11:20;;;;;;;;;;;9.00;99.90;;;;;;5055543;28;20397;-80
2021/12/14 13:13:50;;;;;;;;;;;9.00;99.90;;;;;;5038257;28;20314;-80
2021/12/14 13:16:15;;;;;;;;;;;9.00;99.90;;;;;;5038502;28;19920;-80
2021/12/14 13:18:41;;;;;;;;;;;9.00;99.90;;;;;;5055833;28;20260;-80
2021/12/14 13:21:12;;;;;;;;;;;9.00;99.90;;;;;;5055400;28;19989;-79
2021/12/14 13:23:42;;;;;;;;;;;9.00;99.90;;;;;;5054761;28;19921;-80
2021/12/14 13:26:18;;;;;;;;;;;9.00;99.90;;;;;;5055393;28;19976;-79
2021/12/14 13:28:44;;;;;;;;;;;9.00;99.90;;;;;;5056248;28;20003;-79
2021/12/14 13:31:09;;;;;;;;;;;9.10;99.90;;;;;;5037642;28;20433;-80
2021/12/14 13:33:35;;;;;;;;;;;9.00;99.90;;;;;;5055494;28;19920;-79
2021/12/14 13:36:00;;;;;;;;;;;9.00;99.90;;;;;;5055647;28;19920;-79
2021/12/14 13:38:26;;;;;;;;;;;9.00;99.90;;;;;;5055346;28;19927;-79
2021/12/14 13:40:53;;;;;;;;;;;9.00;99.90;;;;;;5037218;28;19968;-80
2021/12/14 13:43:19;;;;;;;;;;;9.10;99.90;;;;;;5037113;28;19921;-80
2021/12/14 13:45:55;;;;;;;;;;;9.00;99.90;;;;;;5055554;28;19921;-79
2021/12/14 13:48:25;;;;;;;;;;;9.10;99.90;;;;;;5055081;28;19925;-80
2021/12/14 13:50:53;;;;;;;;;;;9.00;99.90;;;;;;5055100;28;19987;-80
2021/12/14 13:53:19;;;;;;;;;;;9.10;99.90;;;;;;5055038;28;19925;-79
2021/12/14 13:55:46;;;;;;;;;;;9.20;99.90;;;;;;5055236;28;20012;-79
2021/12/14 13:58:18;;;;;;;;;;;9.10;99.90;;;;;;5055351;28;19968;-80
2021/12/14 14:00:51;;;;;;;;;;;9.10;99.90;;;;;;5036838;28;19921;-79
2021/12/14 14:03:18;;;;;;;;;;;9.40;99.90;;;;;;5020570;28;19928;-80
2021/12/14 14:05:44;;;;;;;;;;;9.10;99.90;;;;;;5054254;28;19928;-79
2021/12/14 14:08:17;;;;;;;;;;;9.60;99.90;;;;;;5036063;28;20375;-79
2021/12/14 14:10:45;;;;;;;;;;;9.20;99.90;;;;;;5050644;28;19921;-80
2021/12/14 14:13:17;;;;;;;;;;;9.10;99.90;;;;;;5036578;28;20037;-80
2021/12/14 14:15:44;;;;;;;;;;;9.20;99.90;;;;;;5054755;28;20330;-80
2021/12/14 14:18:11;;;;;;;;;;;9.20;99.90;;;;;;5036482;28;20009;-80
2021/12/14 14:20:38;;;;;;;;;;;9.20;99.90;;;;;;5054191;28;20402;-79
2021/12/14 14:23:12;;;;;;;;;;;9.20;99.90;;;;;;5052718;28;19966;-79
2021/12/14 14:25:42;;;;;;;;;;;9.10;99.90;;;;;;5051480;28;20394;-79
2021/12/14 14:28:22;;;;;;;;;;;9.10;99.90;;;;;;5037064;28;19928;-79
2021/12/14 14:30:50;;;;;;;;;;;9.20;99.90;;;;;;5036960;28;20372;-80
2021/12/14 14:33:23;;;;;;;;;;;9.30;99.90;;;;;;5037351;28;19931;-79
2021/12/14 14:35:50;;;;;;;;;;;9.10;99.90;;;;;;5037055;28;20347;-79
2021/12/14 14:38:25;;;;;;;;;;;9.10;99.90;;;;;;5037148;28;19921;-79
2021/12/14 14:40:51;;;;;;;;;;;9.10;99.90;;;;;;5036923;28;20350;-80
2021/12/14 14:43:16;;;;;;;;;;;9.20;99.90;;;;;;5019050;28;19957;-79
2021/12/14 14:45:43;;;;;;;;;;;9.10;99.90;;;;;;5036620;28;20822;-79
2021/12/14 14:48:20;;;;;;;;;;;9.10;99.90;;;;;;5018835;28;19971;-79
2021/12/14 14:50:45;;;;;;;;;;;9.00;99.90;;;;;;5018842;28;20367;-79
2021/12/14 14:53:12;;;;;;;;;;;9.00;99.90;;;;;;5036770;28;19983;-79
2021/12/14 14:55:46;;;;;;;;;;;9.00;99.90;;;;;;5018767;28;20375;-79
2021/12/14 14:58:11;;;;;;;;;;;9.00;99.90;;;;;;5036470;28;19983;-79
2021/12/14 15:00:43;;;;;;;;;;;9.00;99.90;;;;;;5047336;28;19920;-79
2021/12/14 15:03:17;;;;;;;;;;;9.00;99.90;;;;;;5056653;28;19940;-79
2021/12/14 15:05:46;;;;;;;;;;;9.00;99.90;;;;;;5056277;28;20378;-79
2021/12/14 15:08:16;;;;;;;;;;;9.00;99.90;;;;;;5056479;28;20457;-79
2021/12/14 15:10:44;;;;;;;;;;;9.00;99.90;;;;;;5057513;28;19976;-80
2021/12/14 15:13:19;;;;;;;;;;;9.60;99.90;;;;;;5056596;28;20386;-79
2021/12/14 15:15:54;;;;;;;;;;;9.00;99.90;;;;;;5056681;28;20386;-79
2021/12/14 15:18:38;;;;;;;;;;;9.00;99.90;;;;;;5056038;28;20330;-79
2021/12/14 15:21:23;;;;;;;;;;;9.00;99.90;;;;;;5056255;28;20451;-79
2021/12/14 15:23:48;;;;;;;;;;;9.00;99.90;;;;;;5038195;28;19924;-79
2021/12/14 15:26:14;;;;;;;;;;;9.00;99.90;;;;;;5055954;28;19928;-79
2021/12/14 15:28:39;;;;;;;;;;;8.90;99.90;;;;;;5055747;28;19921;-79
2021/12/14 15:31:11;;;;;;;;;;;9.10;99.90;;;;;;5055882;28;19916;-79